Time;durP1;ratioP1;P1;durP2;ratioP2;P2;SDS_P1;SDS_P2;PMS_P1;PMS_P2;Temp;Humidity;BMP_temperature;BMP_pressure;BME280_temperature;BME280_humidity;BME280_pressure;Samples;Min_cycle;Max_cycle;Signal;HPM_P1;HPM_P2
2023/09/05 00:00:10;;;;;;;8.65;4.78;;;;;;;19.24;66.36;101878.88;4986895;28;20393;-67
2023/09/05 00:02:36;;;;;;;6.25;4.88;;;;;;;19.21;66.75;101878.19;4990631;28;20033;-66
2023/09/05 00:05:01;;;;;;;6.72;4.72;;;;;;;19.17;66.93;101868.66;4986382;28;20042;-66
2023/09/05 00:07:27;;;;;;;7.25;4.95;;;;;;;19.09;66.35;101878.00;4992325;28;20087;-67
2023/09/05 00:09:56;;;;;;;7.15;4.90;;;;;;;19.05;67.22;101880.94;4992271;28;20084;-67
2023/09/05 00:12:21;;;;;;;6.80;4.85;;;;;;;19.15;66.48;101874.06;4991230;28;20033;-68
2023/09/05 00:14:46;;;;;;;6.13;4.68;;;;;;;19.16;66.87;101877.63;4986596;28;20030;-67
2023/09/05 00:17:11;;;;;;;9.10;5.28;;;;;;;18.96;67.18;101865.41;4989345;28;20037;-67
2023/09/05 00:19:37;;;;;;;5.57;4.82;;;;;;;18.92;67.23;101874.56;4990909;28;20021;-67
2023/09/05 00:22:02;;;;;;;5.47;4.68;;;;;;;18.91;67.17;101870.19;4988803;28;20034;-67
2023/09/05 00:24:31;;;;;;;7.63;5.22;;;;;;;18.88;67.65;101867.66;4987718;28;20058;-67
2023/09/05 00:27:01;;;;;;;6.53;5.20;;;;;;;18.76;68.02;101864.75;4988789;28;20046;-67
2023/09/05 00:29:30;;;;;;;5.63;4.97;;;;;;;18.59;68.65;101868.38;4990594;28;20462;-68
2023/09/05 00:31:59;;;;;;;7.57;5.15;;;;;;;18.54;69.03;101870.44;4988434;28;20168;-67
2023/09/05 00:34:28;;;;;;;6.80;4.88;;;;;;;18.61;68.28;101873.66;4991120;28;20033;-68
2023/09/05 00:36:53;;;;;;;5.20;4.70;;;;;;;18.66;68.11;101866.22;4988183;28;20214;-67
2023/09/05 00:39:19;;;;;;;8.88;5.20;;;;;;;18.71;67.29;101877.56;4992068;28;20022;-67
2023/09/05 00:41:45;;;;;;;6.80;5.07;;;;;;;18.77;67.37;101876.34;4990001;28;20022;-68
2023/09/05 00:44:13;;;;;;;8.85;5.18;;;;;;;18.79;67.72;101882.47;4989647;28;20022;-67
2023/09/05 00:46:42;;;;;;;6.68;5.32;;;;;;;18.78;66.86;101884.28;4989067;28;20509;-67
2023/09/05 00:49:08;;;;;;;7.72;5.70;;;;;;;18.77;67.22;101879.88;4989579;28;20034;-67
2023/09/05 00:51:34;;;;;;;6.40;5.70;;;;;;;18.69;67.33;101878.59;4990082;28;20458;-67
2023/09/05 00:54:01;;;;;;;5.97;5.35;;;;;;;18.72;67.45;101886.47;4993378;28;20026;-69
2023/09/05 00:56:28;;;;;;;7.78;5.70;;;;;;;18.70;67.41;101881.19;4988981;28;20042;-67
2023/09/05 00:58:53;;;;;;;9.13;6.63;;;;;;;18.67;68.16;101889.38;4991090;28;20045;-67
2023/09/05 01:01:18;;;;;;;7.20;5.28;;;;;;;18.64;67.36;101888.69;4994235;28;20034;-67
2023/09/05 01:03:44;;;;;;;6.80;5.85;;;;;;;18.62;67.74;101878.06;4988351;28;20025;-67
2023/09/05 01:06:22;;;;;;;6.97;5.68;;;;;;;18.57;68.32;101885.50;4989709;28;20025;-67
2023/09/05 01:09:12;;;;;;;6.20;5.60;;;;;;;18.49;67.21;101879.72;4989374;28;20030;-67
2023/09/05 01:11:37;;;;;;;6.03;5.30;;;;;;;18.44;66.67;101888.00;4990038;28;20032;-66
2023/09/05 01:14:03;;;;;;;7.72;5.32;;;;;;;18.40;67.25;101874.88;4992666;28;20030;-66
2023/09/05 01:16:28;;;;;;;6.68;5.75;;;;;;;18.29;67.51;101876.34;4991234;28;20022;-66
2023/09/05 01:18:53;;;;;;;8.00;6.13;;;;;;;18.28;67.84;101871.94;4995875;28;20470;-67
2023/09/05 01:21:40;;;;;;;7.35;5.80;;;;;;;18.31;67.02;101869.06;4989955;28;20038;-67
2023/09/05 01:24:22;;;;;;;7.22;5.55;;;;;;;18.25;67.29;101874.78;4990203;28;20049;-67
2023/09/05 01:26:50;;;;;;;6.15;5.55;;;;;;;18.24;67.22;101869.53;4989124;28;20017;-67
2023/09/05 01:29:25;;;;;;;7.80;6.25;;;;;;;18.23;68.04;101868.66;4968413;28;20014;-67
2023/09/05 01:31:52;;;;;;;7.25;5.70;;;;;;;18.21;68.14;101873.22;4992567;28;20030;-67
2023/09/05 01:34:17;;;;;;;9.10;6.03;;;;;;;18.18;67.99;101884.09;4990465;28;20516;-67
2023/09/05 01:36:42;;;;;;;8.88;6.20;;;;;;;18.16;68.79;101879.78;4989937;28;20030;-67
2023/09/05 01:39:08;;;;;;;7.22;5.70;;;;;;;18.14;68.59;101887.03;4996564;28;20048;-67
2023/09/05 01:41:33;;;;;;;8.00;5.90;;;;;;;18.16;68.46;101887.81;4993576;28;21440;-67
2023/09/05 01:43:58;;;;;;;11.93;6.63;;;;;;;18.18;67.79;101877.88;4976354;28;20060;-67
2023/09/05 01:46:23;;;;;;;6.05;5.45;;;;;;;18.16;68.71;101886.00;4992200;28;20026;-67
2023/09/05 01:48:49;;;;;;;9.43;6.93;;;;;;;18.06;68.51;101890.13;4989911;28;20045;-67
2023/09/05 01:51:14;;;;;;;8.18;6.05;;;;;;;18.02;68.82;101878.72;4989431;28;20038;-67
2023/09/05 01:53:39;;;;;;;7.63;6.53;;;;;;;17.98;68.59;101881.66;4994529;28;20934;-67
2023/09/05 01:56:05;;;;;;;11.25;6.18;;;;;;;18.02;68.43;101883.22;4986438;28;20026;-67
2023/09/05 01:58:30;;;;;;;10.80;6.22;;;;;;;18.04;68.63;101887.53;4989877;28;20377;-67
2023/09/05 02:01:01;;;;;;;9.80;6.00;;;;;;;18.05;68.39;101877.72;4988725;28;20050;-67
2023/09/05 02:03:26;;;;;;;7.97;5.43;;;;;;;18.02;68.20;101878.72;4994408;28;20461;-67
2023/09/05 02:05:51;;;;;;;8.15;5.93;;;;;;;17.99;68.09;101881.56;4991174;28;20019;-67
2023/09/05 02:08:17;;;;;;;8.55;5.90;;;;;;;17.95;68.48;101885.38;4993227;28;20035;-67
2023/09/05 02:10:45;;;;;;;8.07;5.90;;;;;;;17.88;69.43;101886.66;4989525;28;20483;-67
2023/09/05 02:13:10;;;;;;;7.35;5.40;;;;;;;17.91;68.58;101885.63;4991079;28;20037;-67
2023/09/05 02:15:36;;;;;;;8.10;5.45;;;;;;;17.87;69.07;101884.94;4996073;28;20025;-67
2023/09/05 02:18:03;;;;;;;7.55;5.60;;;;;;;17.82;68.66;101882.50;4988611;28;20045;-67
2023/09/05 02:20:28;;;;;;;7.38;5.15;;;;;;;17.83;68.40;101880.69;4995558;28;20026;-67
2023/09/05 02:22:54;;;;;;;8.10;5.70;;;;;;;17.82;68.36;101877.16;4988877;28;20025;-67
2023/09/05 02:25:20;;;;;;;8.52;5.78;;;;;;;17.80;68.81;101884.38;4982604;28;20027;-67
2023/09/05 02:27:45;;;;;;;7.20;5.20;;;;;;;17.81;68.50;101883.44;4986413;28;20241;-67
2023/09/05 02:30:11;;;;;;;7.07;5.55;;;;;;;17.75;68.91;101874.88;4989597;28;20034;-67
2023/09/05 02:32:36;;;;;;;7.43;5.43;;;;;;;17.79;68.63;101881.78;4988916;28;20026;-67
2023/09/05 02:35:01;;;;;;;5.90;5.30;;;;;;;17.76;68.66;101877.47;4991582;28;20034;-68
2023/09/05 02:37:27;;;;;;;7.05;5.30;;;;;;;17.66;69.25;101876.19;4993236;28;20469;-67
2023/09/05 02:39:53;;;;;;;6.57;5.13;;;;;;;17.64;69.14;101871.88;4987013;28;20132;-67
2023/09/05 02:42:18;;;;;;;7.93;4.95;;;;;;;17.68;69.91;101878.81;4986988;28;20501;-67
2023/09/05 02:44:44;;;;;;;7.80;5.70;;;;;;;17.72;69.76;101872.31;4990972;28;20022;-67
2023/09/05 02:47:09;;;;;;;6.78;5.45;;;;;;;17.72;69.64;101875.88;4990535;28;20034;-67
2023/09/05 02:49:34;;;;;;;9.57;5.45;;;;;;;17.79;69.65;101877.31;4990252;28;20030;-67
2023/09/05 02:51:59;;;;;;;8.25;5.35;;;;;;;17.81;69.73;101874.53;4991354;28;20521;-67
2023/09/05 02:54:27;;;;;;;7.32;5.15;;;;;;;17.75;70.20;101867.72;4994305;28;20117;-67
2023/09/05 02:56:54;;;;;;;6.25;5.10;;;;;;;17.56;70.50;101865.13;4985900;28;20044;-68
2023/09/05 02:59:20;;;;;;;5.57;5.00;;;;;;;17.34;71.50;101860.03;4991131;28;20050;-67
2023/09/05 03:01:45;;;;;;;7.10;5.38;;;;;;;17.20;71.48;101859.03;4994111;28;20500;-67
2023/09/05 03:04:11;;;;;;;5.93;4.97;;;;;;;17.20;71.83;101846.53;4992457;28;20026;-67
2023/09/05 03:06:36;;;;;;;9.90;5.65;;;;;;;17.27;71.09;101847.09;4988187;28;20108;-67
2023/09/05 03:09:03;;;;;;;10.02;6.25;;;;;;;17.30;70.90;101852.28;4990086;28;20038;-67
2023/09/05 03:11:28;;;;;;;6.07;5.18;;;;;;;17.29;70.84;101854.06;4984767;28;20405;-67
2023/09/05 03:13:53;;;;;;;6.40;5.63;;;;;;;17.30;70.84;101857.63;4986819;28;20027;-67
2023/09/05 03:16:21;;;;;;;11.45;5.45;;;;;;;17.32;70.72;101863.75;4996648;28;20038;-67
2023/09/05 03:18:46;;;;;;;7.70;5.20;;;;;;;17.38;70.78;101863.41;4989866;28;20026;-67
2023/09/05 03:21:12;;;;;;;6.97;4.78;;;;;;;17.36;70.93;101861.78;4988046;28;20030;-67
2023/09/05 03:23:37;;;;;;;8.05;5.75;;;;;;;17.21;71.73;101858.09;4989885;28;20022;-67
2023/09/05 03:26:02;;;;;;;8.68;5.38;;;;;;;17.09;72.37;101852.44;4989264;28;20541;-68
2023/09/05 03:28:59;;;;;;;8.30;5.20;;;;;;;17.03;71.59;101850.09;4987363;28;20023;-67
2023/09/05 03:31:27;;;;;;;7.30;5.25;;;;;;;16.86;73.05;101851.88;4975975;28;20051;-67
2023/09/05 03:33:54;;;;;;;6.85;5.40;;;;;;;16.83;72.46;101840.41;4989443;28;20417;-67
2023/09/05 03:36:19;;;;;;;6.82;5.00;;;;;;;16.95;71.78;101849.59;4986819;28;20026;-67
2023/09/05 03:38:44;;;;;;;6.72;5.38;;;;;;;16.97;72.10;101847.75;4991153;28;20030;-67
2023/09/05 03:41:10;;;;;;;6.93;5.05;;;;;;;16.98;71.10;101851.28;4993890;28;20116;-67
2023/09/05 03:43:35;;;;;;;7.72;4.95;;;;;;;17.00;71.25;101849.38;4990752;28;20023;-66
2023/09/05 03:46:00;;;;;;;6.40;5.05;;;;;;;16.99;71.29;101842.31;4991913;28;20104;-66
2023/09/05 03:48:25;;;;;;;5.70;4.80;;;;;;;16.97;70.98;101855.75;4988475;28;20026;-66
2023/09/05 03:50:51;;;;;;;6.00;5.10;;;;;;;16.93;70.62;101847.97;4993062;28;20045;-66
2023/09/05 03:53:16;;;;;;;7.60;4.82;;;;;;;16.96;71.30;101851.31;4990784;28;20573;-66
2023/09/05 03:55:42;;;;;;;8.70;5.65;;;;;;;16.99;71.09;101848.50;4988421;28;20563;-66
2023/09/05 03:58:08;;;;;;;6.70;5.20;;;;;;;16.95;71.11;101849.59;4991925;28;20034;-66
2023/09/05 04:00:33;;;;;;;10.13;4.97;;;;;;;16.88;70.85;101841.97;4990262;28;20370;-66
2023/09/05 04:03:02;;;;;;;5.55;4.80;;;;;;;16.81;70.06;101844.09;4992539;28;20025;-67
2023/09/05 04:05:27;;;;;;;5.22;4.72;;;;;;;16.69;70.81;101847.34;4987977;28;20363;-67
2023/09/05 04:07:52;;;;;;;6.25;4.95;;;;;;;16.74;70.33;101848.88;4989159;28;20313;-66
2023/09/05 04:10:18;;;;;;;6.72;4.72;;;;;;;16.70;71.10;101846.41;4986775;28;20029;-66
2023/09/05 04:12:43;;;;;;;6.22;4.65;;;;;;;16.67;70.74;101846.56;4986858;28;20116;-66
2023/09/05 04:15:09;;;;;;;5.97;5.03;;;;;;;16.61;70.69;101834.38;4982987;28;20079;-66
2023/09/05 04:17:34;;;;;;;7.45;4.85;;;;;;;16.59;71.52;101833.56;4985360;28;20037;-67
2023/09/05 04:20:01;;;;;;;6.22;5.03;;;;;;;16.63;71.58;101831.63;4987277;28;20498;-66
2023/09/05 04:22:29;;;;;;;6.45;5.00;;;;;;;16.61;70.65;101828.19;4992098;28;20033;-66
2023/09/05 04:24:55;;;;;;;6.88;4.70;;;;;;;16.55;71.65;101827.56;4990482;28;20477;-66
2023/09/05 04:27:21;;;;;;;5.68;4.93;;;;;;;16.58;71.75;101827.38;4983911;28;20024;-66
2023/09/05 04:29:51;;;;;;;5.05;4.55;;;;;;;16.64;72.13;101828.88;4987852;28;20030;-66
2023/09/05 04:32:30;;;;;;;5.97;4.82;;;;;;;16.68;72.52;101822.44;4988399;28;20033;-66
2023/09/05 04:35:00;;;;;;;5.10;4.60;;;;;;;16.65;72.01;101827.09;4985692;28;20589;-66
2023/09/05 04:37:26;;;;;;;7.40;4.68;;;;;;;16.62;71.15;101822.75;4989587;28;20022;-66
2023/09/05 04:39:51;;;;;;;6.95;4.80;;;;;;;16.61;72.39;101829.03;4987599;28;20041;-66
2023/09/05 04:42:17;;;;;;;6.20;4.60;;;;;;;16.58;71.54;101822.03;4984311;28;20620;-66
2023/09/05 04:44:42;;;;;;;5.60;4.88;;;;;;;16.58;71.97;101834.53;4990125;28;20482;-66
2023/09/05 04:47:27;;;;;;;6.13;4.32;;;;;;;16.62;71.61;101821.91;4987922;28;20510;-66
2023/09/05 04:49:58;;;;;;;5.63;4.20;;;;;;;16.59;71.83;101821.09;4988969;28;20068;-66
2023/09/05 04:52:26;;;;;;;6.50;4.53;;;;;;;16.60;72.07;101816.66;4990999;28;20493;-67
2023/09/05 04:54:52;;;;;;;4.35;3.83;;;;;;;16.63;71.72;101821.81;4990426;28;20018;-66
2023/09/05 04:57:17;;;;;;;7.35;4.10;;;;;;;16.58;71.20;101821.19;4989437;28;20374;-66
2023/09/05 04:59:44;;;;;;;6.07;4.18;;;;;;;16.49;70.62;101816.28;4992889;28;20390;-66
2023/09/05 05:02:10;;;;;;;7.05;4.45;;;;;;;16.41;70.94;101816.66;4989366;28;20038;-66
2023/09/05 05:04:36;;;;;;;5.72;4.05;;;;;;;16.31;71.33;101818.91;4991109;28;20496;-66
2023/09/05 05:07:01;;;;;;;5.28;4.00;;;;;;;16.32;72.04;101815.31;4985887;28;20018;-66
2023/09/05 05:09:26;;;;;;;6.20;4.18;;;;;;;16.33;72.06;101822.38;4988978;28;20520;-66
2023/09/05 05:11:52;;;;;;;6.03;4.53;;;;;;;16.35;71.61;101822.31;4987858;28;20120;-66
2023/09/05 05:14:17;;;;;;;5.05;4.10;;;;;;;16.32;71.90;101828.66;4984288;28;20031;-66
2023/09/05 05:16:43;;;;;;;8.05;4.00;;;;;;;16.29;71.70;101820.81;4988044;28;20034;-66
2023/09/05 05:19:09;;;;;;;5.35;4.07;;;;;;;16.31;72.16;101828.72;4988913;28;20034;-66
2023/09/05 05:21:35;;;;;;;4.22;3.58;;;;;;;16.33;71.95;101822.38;4986851;28;20037;-66
2023/09/05 05:24:00;;;;;;;4.70;3.75;;;;;;;16.36;72.18;101823.16;4987406;28;20050;-66
2023/09/05 05:26:25;;;;;;;4.50;3.75;;;;;;;16.35;72.57;101821.44;4968399;28;20027;-66
2023/09/05 05:28:51;;;;;;;4.90;4.18;;;;;;;16.38;72.67;101832.84;4985659;28;20437;-66
2023/09/05 05:31:16;;;;;;;7.30;3.92;;;;;;;16.42;72.76;101831.75;4993746;28;20038;-66
2023/09/05 05:33:41;;;;;;;5.32;4.07;;;;;;;16.44;72.88;101837.00;4992778;28;20365;-66
2023/09/05 05:36:07;;;;;;;5.93;4.28;;;;;;;16.49;73.05;101837.66;4989686;28;20071;-66
2023/09/05 05:38:32;;;;;;;4.93;3.85;;;;;;;16.56;72.82;101842.63;4988693;28;20037;-66
2023/09/05 05:40:58;;;;;;;5.90;4.10;;;;;;;16.65;71.17;101843.97;5002312;28;20068;-66
2023/09/05 05:43:27;;;;;;;6.20;4.20;;;;;;;16.70;72.85;101844.59;4987821;28;20490;-66
2023/09/05 05:45:52;;;;;;;6.97;4.22;;;;;;;16.81;72.21;101846.78;4992081;28;20104;-66
2023/09/05 05:48:17;;;;;;;4.93;3.85;;;;;;;16.85;71.31;101845.69;4990077;28;20033;-66
2023/09/05 05:50:43;;;;;;;6.60;3.97;;;;;;;16.93;71.52;101843.50;4996803;28;20759;-66
2023/09/05 05:53:08;;;;;;;6.22;4.40;;;;;;;17.00;71.06;101844.88;4996787;28;20071;-66
2023/09/05 05:55:34;;;;;;;4.70;4.28;;;;;;;17.06;70.85;101838.34;4991493;28;20030;-66
2023/09/05 05:58:00;;;;;;;8.13;4.25;;;;;;;17.10;70.80;101845.28;4987828;28;20035;-67
2023/09/05 06:00:27;;;;;;;5.60;4.60;;;;;;;17.13;70.63;101839.78;4994931;28;20061;-66
2023/09/05 06:02:52;;;;;;;5.45;4.40;;;;;;;17.19;70.20;101852.81;4966112;28;20652;-66
2023/09/05 06:05:17;;;;;;;7.10;4.68;;;;;;;17.20;71.29;101848.34;4975750;28;20047;-66
2023/09/05 06:07:43;;;;;;;6.60;4.53;;;;;;;17.22;71.44;101850.00;4989139;28;20035;-66
2023/09/05 06:10:08;;;;;;;5.93;4.40;;;;;;;17.24;71.62;101847.25;4992636;28;20026;-66
2023/09/05 06:12:33;;;;;;;7.95;4.55;;;;;;;17.23;71.91;101849.06;4984990;28;20030;-66
2023/09/05 06:15:00;;;;;;;5.70;4.30;;;;;;;17.28;72.44;101851.47;4991031;28;20199;-67
2023/09/05 06:17:25;;;;;;;7.55;5.15;;;;;;;17.27;71.92;101842.59;4992455;28;20431;-67
2023/09/05 06:19:50;;;;;;;6.60;4.43;;;;;;;17.34;72.33;101844.00;4994328;28;20448;-67
2023/09/05 06:22:17;;;;;;;6.38;4.50;;;;;;;17.40;72.37;101848.19;4993228;28;20030;-67
2023/09/05 06:24:43;;;;;;;5.00;4.47;;;;;;;17.50;72.02;101851.22;4993414;28;20532;-67
2023/09/05 06:27:09;;;;;;;6.13;4.80;;;;;;;17.56;72.16;101853.56;4992863;28;20022;-67
2023/09/05 06:29:35;;;;;;;5.43;4.80;;;;;;;17.65;71.58;101845.06;4985943;28;20486;-67
2023/09/05 06:32:00;;;;;;;5.85;4.43;;;;;;;17.69;71.18;101857.31;4987569;28;20033;-67
2023/09/05 06:34:25;;;;;;;9.85;4.65;;;;;;;17.78;71.31;101851.50;4984831;28;20033;-67
2023/09/05 06:36:51;;;;;;;9.68;5.32;;;;;;;17.86;71.25;101848.44;4989027;28;20525;-67
2023/09/05 06:39:16;;;;;;;5.10;4.60;;;;;;;17.90;71.26;101843.75;4991173;28;20034;-67
2023/09/05 06:41:42;;;;;;;4.80;4.30;;;;;;;17.99;71.95;101846.78;4988923;28;20033;-67
2023/09/05 06:44:07;;;;;;;6.88;4.75;;;;;;;18.03;71.05;101837.63;4987265;28;20112;-67
2023/09/05 06:46:35;;;;;;;6.40;4.90;;;;;;;18.16;70.51;101845.84;4989747;28;20030;-67
2023/09/05 06:49:01;;;;;;;9.15;4.47;;;;;;;18.29;70.38;101846.03;4986853;28;20379;-67
2023/09/05 06:51:26;;;;;;;7.90;5.00;;;;;;;18.36;69.44;101839.38;4990419;28;20053;-67
2023/09/05 06:53:51;;;;;;;6.57;5.10;;;;;;;18.48;69.27;101845.84;4988911;28;20670;-67
2023/09/05 06:56:19;;;;;;;5.97;4.40;;;;;;;18.61;68.29;101841.53;4991225;28;20026;-68
2023/09/05 06:58:45;;;;;;;5.88;4.55;;;;;;;18.73;68.08;101838.13;4990867;28;20120;-67
2023/09/05 07:01:10;;;;;;;5.68;4.47;;;;;;;18.85;68.76;101840.13;4992701;28;20061;-67
2023/09/05 07:03:35;;;;;;;5.43;4.22;;;;;;;18.97;67.93;101829.59;4991169;28;20477;-67
2023/09/05 07:06:03;;;;;;;8.05;4.40;;;;;;;19.08;67.70;101832.53;4988409;28;20028;-67
2023/09/05 07:08:28;;;;;;;5.57;3.90;;;;;;;19.16;67.20;101827.53;4989606;28;20033;-68
2023/09/05 07:10:54;;;;;;;6.38;4.35;;;;;;;19.26;67.73;101820.69;4994343;28;20034;-67
2023/09/05 07:13:19;;;;;;;4.78;4.00;;;;;;;19.38;66.65;101819.06;4988094;28;20458;-67
2023/09/05 07:15:44;;;;;;;7.68;3.72;;;;;;;19.48;67.06;101822.03;4988414;28;20390;-67
2023/09/05 07:18:12;;;;;;;6.20;4.25;;;;;;;19.51;66.07;101825.41;4991818;28;20049;-70
2023/09/05 07:20:37;;;;;;;5.30;3.88;;;;;;;19.65;65.10;101826.41;4987184;28;20046;-66
2023/09/05 07:23:03;;;;;;;5.78;3.80;;;;;;;19.74;64.42;101820.44;4996497;28;20357;-67
2023/09/05 07:25:28;;;;;;;5.60;3.50;;;;;;;19.87;64.15;101821.41;4991965;28;20010;-68
2023/09/05 07:27:54;;;;;;;5.00;3.28;;;;;;;19.99;63.29;101825.13;4990089;28;20055;-70
2023/09/05 07:30:19;;;;;;;4.75;3.65;;;;;;;20.13;62.97;101825.09;4992017;28;20244;-69
2023/09/05 07:32:44;;;;;;;5.07;3.47;;;;;;;20.26;63.37;101817.97;4988516;28;20515;-68
2023/09/05 07:35:10;;;;;;;4.13;3.35;;;;;;;20.41;63.56;101823.28;4992019;28;20037;-68
2023/09/05 07:37:36;;;;;;;7.68;3.22;;;;;;;20.53;62.02;101812.63;4988513;28;20034;-71
2023/09/05 07:40:04;;;;;;;4.63;3.08;;;;;;;20.84;62.78;101819.50;4967818;28;20466;-69
2023/09/05 07:42:30;;;;;;;4.07;3.08;;;;;;;20.88;64.55;101814.75;4983520;28;20032;-69
2023/09/05 07:44:55;;;;;;;5.10;2.95;;;;;;;21.03;63.06;101818.22;4987248;28;20022;-69
2023/09/05 07:47:21;;;;;;;3.83;3.00;;;;;;;21.32;61.57;101808.19;4991884;28;20031;-69
2023/09/05 07:49:46;;;;;;;6.55;3.08;;;;;;;21.68;60.05;101810.09;4992420;28;20033;-69
2023/09/05 07:52:11;;;;;;;4.10;2.97;;;;;;;22.14;59.93;101804.09;4995262;28;20025;-69
2023/09/05 07:54:37;;;;;;;4.32;2.90;;;;;;;22.42;59.78;101814.53;4993690;28;20385;-69
2023/09/05 07:57:02;;;;;;;3.13;2.67;;;;;;;22.77;57.34;101813.72;4995113;28;20034;-69
2023/09/05 07:59:28;;;;;;;2.78;2.47;;;;;;;23.31;55.31;101813.16;4989875;28;20030;-69
2023/09/05 08:01:55;;;;;;;3.45;2.72;;;;;;;23.76;54.45;101815.91;4995374;28;20260;-69
2023/09/05 08:04:21;;;;;;;6.28;3.08;;;;;;;24.14;54.05;101817.34;4986770;28;20050;-69
2023/09/05 08:06:47;;;;;;;4.38;2.35;;;;;;;24.50;51.28;101815.31;4983615;28;20175;-69
2023/09/05 08:09:13;;;;;;;3.53;2.50;;;;;;;24.72;50.87;101823.34;4989799;28;20034;-70
2023/09/05 08:11:39;;;;;;;5.80;2.60;;;;;;;25.02;50.32;101819.00;4987749;28;20034;-69
2023/09/05 08:14:04;;;;;;;5.93;2.55;;;;;;;25.48;48.48;101824.03;4992260;28;20030;-69
2023/09/05 08:16:30;;;;;;;3.03;2.50;;;;;;;25.78;49.88;101820.47;4988546;28;20034;-69
2023/09/05 08:18:55;;;;;;;5.22;2.67;;;;;;;25.98;49.80;101821.44;4991500;28;20042;-69
2023/09/05 08:21:21;;;;;;;4.20;2.53;;;;;;;26.18;48.55;101823.19;4992313;28;20034;-69
2023/09/05 08:23:49;;;;;;;3.28;2.22;;;;;;;26.16;48.13;101830.59;4974969;28;20279;-69
2023/09/05 08:26:16;;;;;;;4.65;2.47;;;;;;;26.47;46.26;101816.97;4996012;28;20037;-69
2023/09/05 08:28:43;;;;;;;3.22;2.35;;;;;;;26.59;46.55;101821.28;4991226;28;20117;-69
2023/09/05 08:31:09;;;;;;;7.22;2.60;;;;;;;26.94;46.47;101819.81;4990150;28;20026;-69
2023/09/05 08:33:35;;;;;;;3.63;2.65;;;;;;;27.10;45.17;101819.28;4993759;28;20031;-69
2023/09/05 08:36:00;;;;;;;3.53;2.58;;;;;;;27.16;44.41;101814.13;4983786;28;20056;-69
2023/09/05 08:38:25;;;;;;;2.78;2.40;;;;;;;27.13;44.93;101816.25;4989829;28;20072;-69
2023/09/05 08:40:51;;;;;;;5.03;2.78;;;;;;;27.50;45.43;101815.44;4990020;28;20030;-69
2023/09/05 08:43:17;;;;;;;5.18;2.45;;;;;;;28.21;40.89;101805.69;4986790;28;20462;-70
2023/09/05 08:45:44;;;;;;;3.53;2.53;;;;;;;28.60;40.57;101810.88;4988042;28;20090;-68
2023/09/05 08:48:10;;;;;;;3.17;2.08;;;;;;;28.70;41.64;101805.34;4987422;28;20032;-70
2023/09/05 08:50:36;;;;;;;2.63;2.40;;;;;;;28.77;39.69;101814.56;4987970;28;20046;-68
2023/09/05 08:53:14;;;;;;;3.30;2.50;;;;;;;29.23;40.53;101810.69;4988634;28;20471;-68
2023/09/05 08:55:40;;;;;;;2.38;2.10;;;;;;;29.51;40.46;101821.44;4989890;28;20089;-70
2023/09/05 08:58:13;;;;;;;4.30;2.30;;;;;;;29.56;40.31;101821.81;4987645;28;20410;-69
2023/09/05 09:00:38;;;;;;;6.60;2.38;;;;;;;29.68;37.97;101825.13;4972391;28;20089;-69
2023/09/05 09:03:06;;;;;;;3.20;2.30;;;;;;;29.96;37.85;101823.91;4991075;28;20034;-69
2023/09/05 09:05:32;;;;;;;2.50;2.15;;;;;;;30.33;37.22;101814.50;4994569;28;20033;-69
2023/09/05 09:07:57;;;;;;;3.00;2.22;;;;;;;30.98;35.84;101819.19;4984659;28;20470;-68
2023/09/05 09:10:23;;;;;;;3.28;2.20;;;;;;;31.27;36.10;101810.47;4993011;28;20033;-68
2023/09/05 09:13:12;;;;;;;5.95;2.13;;;;;;;31.42;35.43;101816.91;4997707;28;20025;-69
2023/09/05 09:15:39;;;;;;;4.80;2.35;;;;;;;31.88;33.98;101824.47;4992260;28;20040;-69
2023/09/05 09:18:10;;;;;;;4.10;2.28;;;;;;;32.02;35.37;101823.72;4999892;28;20042;-69
2023/09/05 09:20:45;;;;;;;3.63;2.50;;;;;;;32.41;34.99;101818.25;4990512;28;20038;-69
2023/09/05 09:23:11;;;;;;;2.45;2.20;;;;;;;32.68;34.30;101813.22;4988691;28;20097;-70
2023/09/05 09:25:46;;;;;;;3.03;2.13;;;;;;;32.78;34.25;101821.19;4994650;28;20034;-69
2023/09/05 09:28:20;;;;;;;3.80;2.05;;;;;;;32.78;34.24;101818.44;4987313;28;20105;-70
2023/09/05 09:30:47;;;;;;;2.30;2.10;;;;;;;33.06;32.79;101819.59;4988995;28;20564;-70
2023/09/05 09:33:14;;;;;;;3.60;2.03;;;;;;;33.41;31.99;101831.75;4988737;28;20037;-70
2023/09/05 09:35:39;;;;;;;3.55;2.22;;;;;;;33.51;32.13;101829.59;4991883;28;20504;-70
2023/09/05 09:38:04;;;;;;;7.33;2.40;;;;;;;33.82;31.62;101836.81;4990534;28;20026;-70
2023/09/05 09:40:36;;;;;;;3.40;2.03;;;;;;;34.26;31.17;101836.72;4991893;28;20637;-70
2023/09/05 09:43:01;;;;;;;;;;;;;;;34.57;31.76;101841.13;4991557;28;20308;-70
2023/09/05 09:45:27;;;;;;;7.10;2.07;;;;;;;34.82;28.92;101838.81;4994565;28;19917;-70
2023/09/05 09:47:55;;;;;;;3.53;2.28;;;;;;;34.89;29.96;101833.41;4989260;28;20030;-69
2023/09/05 09:50:21;;;;;;;3.97;1.90;;;;;;;35.25;29.15;101841.53;4992146;28;20038;-70
2023/09/05 09:52:50;;;;;;;3.35;2.55;;;;;;;35.87;28.45;101837.91;4992461;28;20032;-70
2023/09/05 09:55:16;;;;;;;2.92;1.95;;;;;;;35.75;29.66;101839.53;4995071;28;20026;-69
2023/09/05 09:57:56;;;;;;;4.35;2.22;;;;;;;35.86;30.85;101838.09;4991343;28;20033;-69
2023/09/05 10:00:23;;;;;;;4.05;2.08;;;;;;;36.06;28.03;101829.97;5000440;28;20029;-69
2023/09/05 10:02:49;;;;;;;3.25;2.17;;;;;;;36.24;29.03;101833.84;4991314;28;20029;-69
2023/09/05 10:05:16;;;;;;;2.63;2.40;;;;;;;36.10;27.72;101828.53;4997891;28;20556;-69
2023/09/05 10:07:45;;;;;;;4.32;2.20;;;;;;;35.85;28.15;101829.00;4990201;28;20049;-69
2023/09/05 10:10:15;;;;;;;5.60;2.33;;;;;;;36.17;27.55;101827.47;4991559;28;20080;-69
2023/09/05 10:12:45;;;;;;;3.95;2.45;;;;;;;36.27;27.47;101825.16;4991881;28;20034;-69
2023/09/05 10:15:12;;;;;;;5.55;2.20;;;;;;;36.40;27.80;101823.50;4994523;28;20035;-69
2023/09/05 10:17:39;;;;;;;3.30;2.30;;;;;;;36.77;27.05;101819.34;4987526;28;20482;-69
2023/09/05 10:20:07;;;;;;;4.07;2.03;;;;;;;36.98;28.34;101810.91;4971365;28;20034;-69
2023/09/05 10:22:37;;;;;;;3.55;2.17;;;;;;;36.87;26.25;101805.97;4992324;28;20117;-69
2023/09/05 10:25:05;;;;;;;2.50;2.03;;;;;;;37.32;26.95;101808.94;4988129;28;20030;-70
2023/09/05 10:27:31;;;;;;;3.67;2.50;;;;;;;37.45;26.28;101814.47;4994177;28;20489;-70
2023/09/05 10:29:57;;;;;;;3.90;2.40;;;;;;;37.14;26.77;101828.06;4985418;28;20198;-70
2023/09/05 10:32:24;;;;;;;2.38;2.03;;;;;;;36.92;27.61;101824.69;4991134;28;20033;-70
2023/09/05 10:34:55;;;;;;;2.55;1.90;;;;;;;37.17;25.95;101813.84;4992891;28;20512;-69
2023/09/05 10:37:26;;;;;;;2.63;2.05;;;;;;;36.45;27.90;101813.59;4988946;28;20470;-69
2023/09/05 10:39:54;;;;;;;5.35;2.10;;;;;;;36.61;26.99;101814.22;4989112;28;20045;-69
2023/09/05 10:42:28;;;;;;;2.88;2.40;;;;;;;36.47;27.73;101808.72;4983321;28;20041;-69
2023/09/05 10:45:17;;;;;;;3.05;2.47;;;;;;;36.54;27.06;101811.47;4991877;28;20049;-69
2023/09/05 10:47:42;;;;;;;2.90;2.20;;;;;;;36.03;27.02;101807.31;4989109;28;20088;-69
2023/09/05 10:50:09;;;;;;;2.38;2.15;;;;;;;36.25;28.62;101805.25;4997705;28;20062;-69
2023/09/05 10:52:35;;;;;;;4.57;1.80;;;;;;;36.48;27.93;101799.41;4991682;28;20352;-69
2023/09/05 10:55:29;;;;;;;2.83;1.98;;;;;;;36.01;27.73;101798.41;4992693;28;20030;-69
2023/09/05 10:57:56;;;;;;;3.08;1.92;;;;;;;35.78;29.10;101797.88;4982028;28;20490;-69
2023/09/05 11:00:23;;;;;;;5.60;2.17;;;;;;;36.45;28.08;101805.31;4989768;28;20026;-69
2023/09/05 11:02:49;;;;;;;3.95;1.80;;;;;;;36.14;27.48;101794.84;4986628;28;20038;-69
2023/09/05 11:05:19;;;;;;;5.53;2.00;;;;;;;36.57;27.45;101788.19;4994890;28;20038;-70
2023/09/05 11:07:45;;;;;;;4.00;2.40;;;;;;;36.67;28.12;101789.44;4997781;28;20298;-70
2023/09/05 11:10:28;;;;;;;4.18;2.05;;;;;;;36.48;28.20;101788.38;4992468;28;20113;-70
2023/09/05 11:12:54;;;;;;;3.42;2.00;;;;;;;36.26;27.07;101795.09;4988537;28;20482;-70
2023/09/05 11:15:30;;;;;;;5.50;2.00;;;;;;;35.97;28.44;101799.88;4995403;28;20033;-70
2023/09/05 11:18:04;;;;;;;3.17;2.20;;;;;;;35.83;28.37;101791.75;4986407;28;20026;-70
2023/09/05 11:20:40;;;;;;;2.50;2.28;;;;;;;35.78;28.95;101790.47;4988586;28;20470;-70
2023/09/05 11:23:14;;;;;;;5.25;3.05;;;;;;;36.06;29.53;101797.78;4991498;28;20033;-70